createdAt,value
2017-11-18T00:00:18.844Z,20.20
2017-11-18T00:01:24.123Z,20.20
2017-11-18T00:02:30.141Z,20.20
2017-11-18T00:03:35.598Z,20.20
2017-11-18T00:04:41.136Z,20.20
2017-11-18T00:05:46.413Z,20.20
2017-11-18T00:06:51.525Z,20.20
2017-11-18T00:07:56.293Z,20.20
2017-11-18T00:09:02.217Z,20.20
2017-11-18T00:10:07.588Z,20.20
2017-11-18T00:11:12.657Z,20.20
2017-11-18T00:12:18.101Z,20.20
2017-11-18T00:13:23.662Z,20.20
2017-11-18T00:14:28.996Z,20.20
2017-11-18T00:15:34.118Z,20.20
2017-11-18T00:16:39.912Z,20.10
2017-11-18T00:17:45.002Z,20.20
2017-11-18T00:18:50.285Z,20.10
2017-11-18T00:19:55.329Z,20.10
2017-11-18T00:21:00.900Z,20.10
2017-11-18T00:22:06.298Z,20.10
2017-11-18T00:23:11.355Z,20.10
2017-11-18T00:24:16.562Z,20.20
2017-11-18T00:25:21.788Z,20.20
2017-11-18T00:26:27.150Z,20.10
2017-11-18T00:27:32.508Z,20.20
2017-11-18T00:28:37.776Z,20.20
2017-11-18T00:29:43.098Z,20.20
2017-11-18T00:30:48.460Z,20.20
2017-11-18T00:31:53.649Z,20.20
2017-11-18T00:32:58.919Z,20.20
2017-11-18T00:34:03.811Z,20.20
2017-11-18T00:35:08.573Z,20.10
2017-11-18T00:36:13.360Z,20.20
2017-11-18T00:37:18.129Z,20.20
2017-11-18T00:38:22.787Z,20.10
2017-11-18T00:39:27.598Z,20.10
2017-11-18T00:40:32.414Z,20.10
2017-11-18T00:41:37.240Z,20.10
2017-11-18T00:42:42.070Z,20.10
2017-11-18T00:43:46.808Z,20.10
2017-11-18T00:44:51.390Z,20.10
2017-11-18T00:45:56.139Z,20.10
2017-11-18T00:47:00.868Z,20.10
2017-11-18T00:48:05.599Z,20.10
2017-11-18T00:49:10.336Z,20.10
2017-11-18T00:50:15.059Z,20.10
2017-11-18T00:51:19.799Z,20.10
2017-11-18T00:52:24.659Z,20.10
2017-11-18T00:53:29.540Z,20.10
2017-11-18T00:54:34.383Z,20.10
2017-11-18T00:55:39.076Z,20.00
2017-11-18T00:56:43.817Z,20.10
2017-11-18T00:57:48.490Z,20.10
2017-11-18T00:58:53.254Z,20.10
2017-11-18T00:59:57.978Z,20.10
2017-11-18T01:01:02.782Z,20.10
2017-11-18T01:02:07.678Z,20.10
2017-11-18T01:03:12.446Z,20.10
2017-11-18T01:04:17.193Z,20.10
2017-11-18T01:05:22.100Z,20.10
2017-11-18T01:06:27.017Z,20.10
2017-11-18T01:07:31.762Z,20.10
2017-11-18T01:08:36.695Z,20.10
2017-11-18T01:09:41.572Z,20.10
2017-11-18T01:10:46.486Z,20.10
2017-11-18T01:11:51.236Z,20.10
2017-11-18T01:12:56.003Z,20.10
2017-11-18T01:14:00.753Z,20.10
2017-11-18T01:15:05.337Z,20.00
2017-11-18T01:16:10.101Z,20.10
2017-11-18T01:17:14.734Z,20.10
2017-11-18T01:18:19.500Z,20.10
2017-11-18T01:19:24.199Z,20.10
2017-11-18T01:20:28.977Z,20.10
2017-11-18T01:21:33.572Z,20.10
2017-11-18T01:22:38.305Z,20.10
2017-11-18T01:23:43.140Z,20.10
2017-11-18T01:24:47.943Z,20.10
2017-11-18T01:25:52.862Z,20.10
2017-11-18T01:26:57.791Z,20.10
2017-11-18T01:28:02.668Z,20.10
2017-11-18T01:29:07.427Z,20.10
2017-11-18T01:30:12.227Z,20.10
2017-11-18T01:31:16.963Z,20.10
2017-11-18T01:32:21.843Z,20.10
2017-11-18T01:33:26.572Z,20.10
2017-11-18T01:34:31.297Z,20.10
2017-11-18T01:35:35.917Z,20.10
2017-11-18T01:36:40.503Z,20.10
2017-11-18T01:37:45.385Z,20.10
2017-11-18T01:38:50.164Z,20.10
2017-11-18T01:39:54.883Z,20.10
2017-11-18T01:40:59.538Z,20.10
2017-11-18T01:42:04.133Z,20.10
2017-11-18T01:43:08.846Z,20.10
2017-11-18T01:44:13.605Z,20.10
2017-11-18T01:45:18.359Z,20.10
2017-11-18T01:46:23.250Z,20.10
2017-11-18T01:47:28.105Z,20.10
2017-11-18T01:48:32.694Z,20.10
2017-11-18T01:49:37.415Z,20.10
2017-11-18T01:50:42.172Z,20.10
2017-11-18T01:51:46.790Z,20.10
2017-11-18T01:52:51.556Z,20.10
2017-11-18T01:53:56.216Z,20.10
2017-11-18T01:55:01.089Z,20.10
2017-11-18T01:56:05.976Z,20.10
2017-11-18T01:57:10.680Z,20.10
2017-11-18T01:58:15.277Z,20.10
2017-11-18T01:59:19.860Z,20.10
2017-11-18T02:00:24.450Z,20.10
2017-11-18T02:01:29.208Z,20.10
2017-11-18T02:02:34.006Z,20.10
2017-11-18T02:03:38.756Z,20.10
2017-11-18T02:04:43.513Z,20.10
2017-11-18T02:05:48.432Z,20.10
2017-11-18T02:06:53.190Z,20.10
2017-11-18T02:07:57.953Z,20.10
2017-11-18T02:09:02.756Z,20.10
2017-11-18T02:10:07.524Z,20.10
2017-11-18T02:11:12.249Z,20.10
2017-11-18T02:12:17.015Z,20.10
2017-11-18T02:13:21.762Z,20.10
2017-11-18T02:14:26.558Z,20.10
2017-11-18T02:15:31.303Z,20.10
2017-11-18T02:16:36.176Z,20.10
2017-11-18T02:17:40.769Z,20.10
2017-11-18T02:18:45.563Z,20.10
2017-11-18T02:19:50.323Z,20.10
2017-11-18T02:20:54.956Z,20.10
2017-11-18T02:21:59.843Z,20.10
2017-11-18T02:23:04.550Z,20.10
2017-11-18T02:24:09.884Z,20.10
2017-11-18T02:25:14.821Z,20.10
2017-11-18T02:26:19.625Z,20.10
2017-11-18T02:27:24.447Z,20.10
2017-11-18T02:28:29.220Z,20.10
2017-11-18T02:29:33.961Z,20.10
2017-11-18T02:30:38.738Z,20.10
2017-11-18T02:31:43.528Z,20.10
2017-11-18T02:32:48.432Z,20.10
2017-11-18T02:33:53.229Z,20.10
2017-11-18T02:34:58.138Z,20.10
2017-11-18T02:36:02.875Z,20.10
2017-11-18T02:37:07.502Z,20.10
2017-11-18T02:38:12.273Z,20.10
2017-11-18T02:39:16.880Z,20.10
2017-11-18T02:40:21.553Z,20.10
2017-11-18T02:41:26.336Z,20.10
2017-11-18T02:42:31.263Z,20.10
2017-11-18T02:43:36.010Z,20.10
2017-11-18T02:44:40.869Z,20.10
2017-11-18T02:45:45.732Z,20.10
2017-11-18T02:46:50.608Z,20.10
2017-11-18T02:47:55.339Z,20.10
2017-11-18T02:49:00.101Z,20.10
2017-11-18T02:50:04.682Z,20.10
2017-11-18T02:51:09.408Z,20.10
2017-11-18T02:52:14.269Z,20.10
2017-11-18T02:53:18.908Z,20.10
2017-11-18T02:54:23.649Z,20.10
2017-11-18T02:55:28.201Z,20.10
2017-11-18T02:56:33.072Z,20.10
2017-11-18T02:57:37.720Z,20.10
2017-11-18T02:58:42.425Z,20.10
2017-11-18T02:59:47.204Z,20.10
2017-11-18T03:00:52.107Z,20.10
2017-11-18T03:01:56.770Z,20.10
2017-11-18T03:03:01.585Z,20.10
2017-11-18T03:04:06.350Z,20.10
2017-11-18T03:05:11.097Z,20.10
2017-11-18T03:06:15.969Z,20.10
2017-11-18T03:07:20.804Z,20.10
2017-11-18T03:08:25.700Z,20.10
2017-11-18T03:09:30.494Z,20.10
2017-11-18T03:10:35.462Z,20.10
2017-11-18T03:11:40.165Z,20.10
2017-11-18T03:12:44.734Z,20.10
2017-11-18T03:13:49.482Z,20.10
2017-11-18T03:14:54.158Z,20.10
2017-11-18T03:15:58.895Z,20.10
2017-11-18T03:17:03.678Z,20.10
2017-11-18T03:18:08.547Z,20.10
2017-11-18T03:19:13.288Z,20.10
2017-11-18T03:20:18.037Z,20.10
2017-11-18T03:21:22.809Z,20.10
2017-11-18T03:22:27.686Z,20.10
2017-11-18T03:23:32.568Z,20.10
2017-11-18T03:24:37.184Z,20.10
2017-11-18T03:25:41.795Z,20.10
2017-11-18T03:26:46.577Z,20.10
2017-11-18T03:27:51.436Z,20.10
2017-11-18T03:28:56.046Z,20.10
2017-11-18T03:30:00.635Z,20.10
2017-11-18T03:31:05.424Z,20.10
2017-11-18T03:32:10.159Z,20.10
2017-11-18T03:33:14.713Z,20.10
2017-11-18T03:34:19.496Z,20.10
2017-11-18T03:35:24.073Z,20.10
2017-11-18T03:36:28.813Z,20.10
2017-11-18T03:37:33.555Z,20.10
2017-11-18T03:38:38.125Z,20.00
2017-11-18T03:39:43.019Z,20.10
2017-11-18T03:40:47.742Z,20.10
2017-11-18T03:41:52.439Z,20.10
2017-11-18T03:42:57.332Z,20.10
2017-11-18T03:44:01.937Z,20.10
2017-11-18T03:45:06.735Z,20.10
2017-11-18T03:46:11.619Z,20.10
2017-11-18T03:47:16.223Z,20.10
2017-11-18T03:48:20.971Z,20.10
2017-11-18T03:49:25.832Z,20.10
2017-11-18T03:50:30.744Z,20.10
2017-11-18T03:51:35.621Z,20.10
2017-11-18T03:52:40.350Z,20.10
2017-11-18T03:53:45.247Z,20.10
2017-11-18T03:54:49.959Z,20.10
2017-11-18T03:55:54.701Z,20.10
2017-11-18T03:56:59.486Z,20.10
2017-11-18T03:58:04.072Z,20.10
2017-11-18T03:59:08.982Z,20.10
2017-11-18T04:00:13.740Z,20.10
2017-11-18T04:01:18.592Z,20.10
2017-11-18T04:02:23.481Z,20.10
2017-11-18T04:03:28.067Z,20.10
2017-11-18T04:04:32.685Z,20.10
2017-11-18T04:05:37.500Z,20.10
2017-11-18T04:06:42.337Z,20.10
2017-11-18T04:07:47.124Z,20.10
2017-11-18T04:08:51.846Z,20.10
2017-11-18T04:09:56.661Z,20.10
2017-11-18T04:11:01.667Z,20.10
2017-11-18T04:12:06.430Z,20.10
2017-11-18T04:13:11.247Z,20.10
2017-11-18T04:14:15.903Z,20.10
2017-11-18T04:15:20.624Z,20.10
2017-11-18T04:16:25.490Z,20.10
2017-11-18T04:17:30.106Z,20.10
2017-11-18T04:18:34.871Z,20.10
2017-11-18T04:19:39.492Z,20.10
2017-11-18T04:20:44.317Z,20.10
2017-11-18T04:21:48.870Z,20.10
2017-11-18T04:22:53.593Z,20.10
2017-11-18T04:23:58.452Z,20.10
2017-11-18T04:25:03.509Z,20.10
2017-11-18T04:26:08.637Z,20.10
2017-11-18T04:27:13.709Z,20.10
2017-11-18T04:28:18.981Z,20.10
2017-11-18T04:29:24.148Z,20.10
2017-11-18T04:30:29.299Z,20.10
2017-11-18T04:31:34.223Z,20.10
2017-11-18T04:32:39.146Z,20.10
2017-11-18T04:33:44.722Z,20.10
2017-11-18T04:34:49.812Z,20.10
2017-11-18T04:35:55.176Z,20.10
2017-11-18T04:37:00.341Z,20.10
2017-11-18T04:38:05.318Z,20.10
2017-11-18T04:39:10.255Z,20.10
2017-11-18T04:40:15.526Z,20.10
2017-11-18T04:41:20.661Z,20.20
2017-11-18T04:42:25.624Z,20.20
2017-11-18T04:43:30.759Z,20.20
2017-11-18T04:44:35.902Z,20.10
2017-11-18T04:45:41.600Z,20.10
2017-11-18T04:46:46.566Z,20.20
2017-11-18T04:47:51.402Z,20.20
2017-11-18T04:48:56.603Z,20.20
2017-11-18T04:50:01.910Z,20.20
2017-11-18T04:51:07.942Z,20.10
2017-11-18T04:52:12.906Z,20.10
2017-11-18T04:53:18.755Z,20.10
2017-11-18T04:54:23.963Z,20.10
2017-11-18T04:55:29.529Z,20.10
2017-11-18T04:56:34.683Z,20.10
2017-11-18T04:57:39.506Z,20.10
2017-11-18T04:58:44.541Z,20.10
2017-11-18T04:59:49.515Z,20.10
2017-11-18T05:00:54.547Z,20.20
2017-11-18T05:01:59.673Z,20.20
2017-11-18T05:03:05.619Z,20.20
2017-11-18T05:04:10.727Z,20.20
2017-11-18T05:05:15.869Z,20.20
2017-11-18T05:06:21.020Z,20.20
2017-11-18T05:07:26.122Z,20.20
2017-11-18T05:08:31.224Z,20.10
2017-11-18T05:09:36.272Z,20.20
2017-11-18T05:10:41.504Z,20.10
2017-11-18T05:11:46.741Z,20.20
2017-11-18T05:12:51.822Z,20.10
2017-11-18T05:13:56.703Z,20.10
2017-11-18T05:15:02.010Z,20.20
2017-11-18T05:16:07.299Z,20.20
2017-11-18T05:17:12.283Z,20.20
2017-11-18T05:18:17.234Z,20.20
2017-11-18T05:19:22.170Z,20.20
2017-11-18T05:20:27.155Z,20.10
2017-11-18T05:21:32.282Z,20.20
2017-11-18T05:22:37.217Z,20.20
2017-11-18T05:23:42.241Z,20.20
2017-11-18T05:24:47.522Z,20.20
2017-11-18T05:25:53.096Z,20.20
2017-11-18T05:26:58.189Z,20.10
2017-11-18T05:28:03.318Z,20.20
2017-11-18T05:29:08.648Z,20.20
2017-11-18T05:30:13.836Z,20.20
2017-11-18T05:31:18.985Z,20.10
2017-11-18T05:32:24.335Z,20.20
2017-11-18T05:33:29.371Z,20.20
2017-11-18T05:34:34.437Z,20.10
2017-11-18T05:35:39.551Z,20.20
2017-11-18T05:36:45.128Z,20.10
2017-11-18T05:37:50.420Z,20.20
2017-11-18T05:38:55.849Z,20.20
2017-11-18T05:40:01.080Z,20.20
2017-11-18T05:41:06.363Z,20.20
2017-11-18T05:42:11.715Z,20.20
2017-11-18T05:43:17.345Z,20.10
2017-11-18T05:44:22.565Z,20.20
2017-11-18T05:45:27.803Z,20.20
2017-11-18T05:46:32.930Z,20.20
2017-11-18T05:47:38.247Z,20.20
2017-11-18T05:48:43.529Z,20.20
2017-11-18T05:49:48.435Z,20.20
2017-11-18T05:50:53.320Z,20.20
2017-11-18T05:51:58.366Z,20.20
2017-11-18T05:53:04.338Z,20.20
2017-11-18T05:54:09.773Z,20.20
2017-11-18T05:55:15.151Z,20.20
2017-11-18T05:56:20.098Z,20.20
2017-11-18T05:57:24.990Z,20.20
2017-11-18T05:58:29.865Z,20.20
2017-11-18T05:59:35.180Z,20.20
2017-11-18T06:00:40.511Z,20.20
2017-11-18T06:01:45.646Z,20.20
2017-11-18T06:02:51.085Z,20.10
2017-11-18T06:03:56.145Z,20.20
2017-11-18T06:05:01.048Z,20.20
2017-11-18T06:06:06.590Z,20.10
2017-11-18T06:07:11.689Z,20.20
2017-11-18T06:08:16.694Z,20.10
2017-11-18T06:09:21.969Z,20.10
2017-11-18T06:10:28.245Z,20.10
2017-11-18T06:11:33.845Z,20.10
2017-11-18T06:12:38.976Z,20.10
2017-11-18T06:13:44.220Z,20.10
2017-11-18T06:14:49.332Z,20.10
2017-11-18T06:15:54.500Z,20.10
2017-11-18T06:17:00.425Z,20.10
2017-11-18T06:18:05.540Z,20.00
2017-11-18T06:19:10.819Z,20.00
2017-11-18T06:20:15.689Z,20.00
2017-11-18T06:21:20.829Z,20.00
2017-11-18T06:22:25.740Z,20.00
2017-11-18T06:23:30.850Z,20.00
2017-11-18T06:24:35.940Z,20.00
2017-11-18T06:25:41.257Z,20.00
2017-11-18T06:26:46.396Z,20.00
2017-11-18T06:27:51.559Z,20.00
2017-11-18T06:28:57.286Z,20.00
2017-11-18T06:30:02.371Z,20.00
2017-11-18T06:31:07.605Z,20.00
2017-11-18T06:32:12.594Z,20.00
2017-11-18T06:33:17.878Z,20.00
2017-11-18T06:34:23.171Z,20.00
2017-11-18T06:35:28.255Z,20.00
2017-11-18T06:36:33.591Z,20.00
2017-11-18T06:37:38.729Z,20.00
2017-11-18T06:38:44.043Z,19.90
2017-11-18T06:39:49.256Z,19.80
2017-11-18T06:40:54.589Z,19.70
2017-11-18T06:41:59.955Z,19.50
2017-11-18T06:43:05.075Z,19.40
2017-11-18T06:44:11.856Z,19.20
2017-11-18T06:45:17.893Z,19.20
2017-11-18T06:46:22.999Z,19.10
2017-11-18T06:47:27.969Z,19.00
2017-11-18T06:48:33.071Z,18.90
2017-11-18T06:49:38.347Z,18.90
2017-11-18T06:50:43.658Z,18.80
2017-11-18T06:51:48.987Z,18.90
2017-11-18T06:52:54.199Z,18.90
2017-11-18T06:53:59.291Z,19.00
2017-11-18T06:55:04.692Z,19.00
2017-11-18T06:56:10.020Z,19.10
2017-11-18T06:57:15.206Z,19.20
2017-11-18T06:58:20.410Z,19.20
2017-11-18T06:59:26.085Z,19.30
2017-11-18T07:00:32.275Z,19.30
2017-11-18T07:01:37.562Z,19.40
2017-11-18T07:02:42.797Z,19.40
2017-11-18T07:03:47.770Z,19.40
2017-11-18T07:04:52.950Z,19.50
2017-11-18T07:05:58.263Z,19.50
2017-11-18T07:07:03.986Z,19.50
2017-11-18T07:08:09.041Z,19.50
2017-11-18T07:09:14.059Z,19.60
2017-11-18T07:10:19.199Z,19.60
2017-11-18T07:11:24.514Z,19.60
2017-11-18T07:12:29.967Z,19.60
2017-11-18T07:13:35.151Z,19.60
2017-11-18T07:14:40.293Z,19.70
2017-11-18T07:15:45.458Z,19.70
2017-11-18T07:16:50.580Z,19.70
2017-11-18T07:17:56.707Z,19.80
2017-11-18T07:19:02.314Z,19.80
2017-11-18T07:20:08.061Z,19.90
2017-11-18T07:21:13.316Z,19.90
2017-11-18T07:22:18.594Z,19.90
2017-11-18T07:23:23.580Z,19.90
2017-11-18T07:24:29.575Z,19.90
2017-11-18T07:25:34.809Z,20.00
2017-11-18T07:26:39.961Z,20.00
2017-11-18T07:27:45.175Z,20.00
2017-11-18T07:28:50.400Z,20.00
2017-11-18T07:29:55.604Z,20.10
2017-11-18T07:31:00.571Z,20.10
2017-11-18T07:32:06.300Z,20.10
2017-11-18T07:33:11.447Z,20.10
2017-11-18T07:34:17.662Z,20.20
2017-11-18T07:35:23.254Z,20.10
2017-11-18T07:36:28.465Z,20.20
2017-11-18T07:37:33.609Z,20.20
2017-11-18T07:38:39.121Z,20.20
2017-11-18T07:39:45.542Z,20.20
2017-11-18T07:40:50.851Z,20.20
2017-11-18T07:41:56.075Z,20.20
2017-11-18T07:43:01.479Z,20.20
2017-11-18T07:44:06.862Z,20.30
2017-11-18T07:45:12.272Z,20.20
2017-11-18T07:46:17.575Z,20.30
2017-11-18T07:47:23.014Z,20.30
2017-11-18T07:48:28.601Z,20.30
2017-11-18T07:49:33.755Z,20.30
2017-11-18T07:50:39.103Z,20.30
2017-11-18T07:51:45.993Z,20.30
2017-11-18T07:52:51.135Z,20.30
2017-11-18T07:53:56.344Z,20.30
2017-11-18T07:55:01.996Z,20.30
2017-11-18T07:56:08.295Z,20.40
2017-11-18T07:57:13.539Z,20.40
2017-11-18T07:58:18.686Z,20.30
2017-11-18T07:59:23.934Z,20.30
2017-11-18T08:00:29.412Z,20.30
2017-11-18T08:01:34.705Z,20.30
2017-11-18T08:02:39.800Z,20.30
2017-11-18T08:03:45.134Z,20.30
2017-11-18T08:04:50.345Z,20.30
2017-11-18T08:05:55.474Z,20.30
2017-11-18T08:07:00.597Z,20.30
2017-11-18T08:08:07.892Z,20.30
2017-11-18T08:09:13.224Z,20.30
2017-11-18T08:10:18.386Z,20.40
2017-11-18T08:11:23.910Z,20.40
2017-11-18T08:12:29.203Z,20.30
2017-11-18T08:13:34.522Z,20.40
2017-11-18T08:14:39.821Z,20.30
2017-11-18T08:15:45.367Z,20.30
2017-11-18T08:16:50.662Z,20.40
2017-11-18T08:17:56.032Z,20.40
2017-11-18T08:19:01.219Z,20.40
2017-11-18T08:20:07.120Z,20.40
2017-11-18T08:21:12.666Z,20.40
2017-11-18T08:22:17.989Z,20.30
2017-11-18T08:23:23.203Z,20.40
2017-11-18T08:24:28.574Z,20.30
2017-11-18T08:25:34.144Z,20.40
2017-11-18T08:26:39.768Z,20.40
2017-11-18T08:27:45.319Z,20.40
2017-11-18T08:28:52.680Z,20.30
2017-11-18T08:29:58.176Z,20.40
2017-11-18T08:31:03.776Z,20.40
2017-11-18T08:32:09.229Z,20.30
2017-11-18T08:33:14.582Z,20.30
2017-11-18T08:34:20.323Z,20.40
2017-11-18T08:35:26.057Z,20.30
2017-11-18T08:36:31.467Z,20.30
2017-11-18T08:37:36.848Z,20.30
2017-11-18T08:38:42.857Z,20.30
2017-11-18T08:39:48.300Z,20.30
2017-11-18T08:40:53.689Z,20.30
2017-11-18T08:41:59.035Z,20.30
2017-11-18T08:43:04.121Z,20.40
2017-11-18T08:44:10.567Z,20.30
2017-11-18T08:45:16.525Z,20.30
2017-11-18T08:46:21.939Z,20.30
2017-11-18T08:47:27.448Z,20.30
2017-11-18T08:48:33.647Z,20.30
2017-11-18T08:49:39.235Z,20.40
2017-11-18T08:50:45.480Z,20.40
2017-11-18T08:51:51.070Z,20.30
2017-11-18T08:52:56.577Z,20.30
2017-11-18T08:54:04.167Z,20.40
2017-11-18T08:55:11.878Z,20.40
2017-11-18T08:56:18.985Z,20.40
2017-11-18T08:57:25.927Z,20.40
2017-11-18T08:58:33.301Z,20.40
2017-11-18T08:59:39.081Z,20.40
2017-11-18T09:00:44.714Z,20.40
2017-11-18T09:01:50.276Z,20.40
2017-11-18T09:02:55.550Z,20.30
2017-11-18T09:04:00.977Z,20.40
2017-11-18T09:05:07.947Z,20.40
2017-11-18T09:06:15.168Z,20.30
2017-11-18T09:07:20.856Z,20.30
2017-11-18T09:08:26.748Z,20.30
2017-11-18T09:09:33.131Z,20.30
2017-11-18T09:10:38.938Z,20.30
2017-11-18T09:11:45.407Z,20.30
2017-11-18T09:12:51.310Z,20.30
2017-11-18T09:13:56.991Z,20.30
2017-11-18T09:15:02.508Z,20.30
2017-11-18T09:16:08.153Z,20.30
2017-11-18T09:17:13.745Z,20.30
2017-11-18T09:18:19.024Z,20.30
2017-11-18T09:19:24.612Z,20.30
2017-11-18T09:20:29.878Z,20.30
2017-11-18T09:21:35.580Z,20.30
2017-11-18T09:22:41.012Z,20.30
2017-11-18T09:23:46.916Z,20.30
2017-11-18T09:24:52.733Z,20.30
2017-11-18T09:25:58.756Z,20.40
2017-11-18T09:27:05.436Z,20.40
2017-11-18T09:28:11.171Z,20.40
2017-11-18T09:29:17.026Z,20.40
2017-11-18T09:30:22.444Z,20.40
2017-11-18T09:31:27.985Z,20.40
2017-11-18T09:32:33.267Z,20.40
2017-11-18T09:33:39.160Z,20.40
2017-11-18T09:34:44.999Z,20.40
2017-11-18T09:35:51.462Z,20.50
2017-11-18T09:36:57.820Z,20.50
2017-11-18T09:38:04.254Z,20.50
2017-11-18T09:39:11.261Z,20.50
2017-11-18T09:40:17.515Z,20.50
2017-11-18T09:41:23.752Z,20.50
2017-11-18T09:42:30.465Z,20.50
2017-11-18T09:43:36.440Z,20.50
2017-11-18T09:44:42.005Z,20.50
2017-11-18T09:45:47.873Z,20.50
2017-11-18T09:46:54.328Z,20.50
2017-11-18T09:48:00.142Z,20.50
2017-11-18T09:49:06.258Z,20.50
2017-11-18T09:50:12.388Z,20.50
2017-11-18T09:51:18.573Z,20.50
2017-11-18T09:52:24.502Z,20.50
2017-11-18T09:53:30.469Z,20.50
2017-11-18T09:54:36.005Z,20.50
2017-11-18T09:55:41.701Z,20.50
2017-11-18T09:56:47.798Z,20.50
2017-11-18T09:57:53.648Z,20.40
2017-11-18T09:58:59.397Z,20.40
2017-11-18T10:00:05.420Z,20.40
2017-11-18T10:01:11.438Z,20.50
2017-11-18T10:02:17.422Z,20.40
2017-11-18T10:03:23.004Z,20.40
2017-11-18T10:04:28.412Z,20.40
2017-11-18T10:05:33.950Z,20.50
2017-11-18T10:06:41.075Z,20.50
2017-11-18T10:07:46.400Z,20.40
2017-11-18T10:08:52.209Z,20.50
2017-11-18T10:09:57.719Z,20.40
2017-11-18T10:11:03.697Z,20.40
2017-11-18T10:12:09.294Z,20.50
2017-11-18T10:13:15.307Z,20.50
2017-11-18T10:14:20.669Z,20.50
2017-11-18T10:15:26.736Z,20.40
2017-11-18T10:16:32.409Z,20.40
2017-11-18T10:17:38.232Z,20.40
2017-11-18T10:18:43.875Z,20.30
2017-11-18T10:19:49.573Z,20.20
2017-11-18T10:20:55.382Z,20.00
2017-11-18T10:22:13.014Z,19.90
2017-11-18T10:23:18.520Z,19.80
2017-11-18T10:24:24.140Z,19.70
2017-11-18T10:25:30.198Z,19.70
2017-11-18T10:26:36.487Z,19.70
2017-11-18T10:27:42.130Z,19.60
2017-11-18T10:28:48.242Z,19.60
2017-11-18T10:29:54.200Z,19.60
2017-11-18T10:31:00.369Z,19.70
2017-11-18T10:32:06.018Z,19.60
2017-11-18T10:33:12.072Z,19.60
2017-11-18T10:34:18.372Z,19.60
2017-11-18T10:35:23.686Z,19.40
2017-11-18T10:36:30.274Z,19.40
2017-11-18T10:37:35.715Z,19.40
2017-11-18T10:38:41.668Z,19.40
2017-11-18T10:39:48.038Z,19.40
2017-11-18T10:40:54.197Z,19.40
2017-11-18T10:42:00.121Z,19.40
2017-11-18T10:43:06.153Z,19.40
2017-11-18T10:44:12.012Z,19.40
2017-11-18T10:45:17.752Z,19.40
2017-11-18T10:46:23.296Z,19.40
2017-11-18T10:47:29.331Z,19.40
2017-11-18T10:48:34.811Z,19.40
2017-11-18T10:49:40.774Z,19.40
2017-11-18T10:50:47.857Z,19.30
2017-11-18T10:51:53.789Z,19.40
2017-11-18T10:53:00.269Z,19.40
2017-11-18T10:54:06.129Z,19.40
2017-11-18T10:55:11.597Z,19.50
2017-11-18T10:56:17.184Z,19.50
2017-11-18T10:57:22.636Z,19.50
2017-11-18T10:58:27.971Z,19.50
2017-11-18T10:59:34.756Z,19.60
2017-11-18T11:00:40.467Z,19.60
2017-11-18T11:01:45.811Z,19.70
2017-11-18T11:02:51.519Z,19.70
2017-11-18T11:03:57.185Z,19.70
2017-11-18T11:05:03.634Z,19.70
2017-11-18T11:06:10.790Z,19.70
2017-11-18T11:07:16.234Z,19.70
2017-11-18T11:08:24.413Z,19.80
2017-11-18T11:09:30.418Z,19.80
2017-11-18T11:10:36.467Z,19.80
2017-11-18T11:11:42.624Z,19.80
2017-11-18T11:12:48.144Z,19.80
2017-11-18T11:13:53.576Z,19.90
2017-11-18T11:14:59.241Z,19.80
2017-11-18T11:16:05.059Z,19.90
2017-11-18T11:17:12.333Z,19.90
2017-11-18T11:18:18.083Z,19.90
2017-11-18T11:19:23.758Z,19.90
2017-11-18T11:20:29.106Z,20.00
2017-11-18T11:21:35.225Z,20.00
2017-11-18T11:22:41.025Z,20.00
2017-11-18T11:23:46.298Z,20.00
2017-11-18T11:24:51.505Z,20.00
2017-11-18T11:25:57.131Z,20.00
2017-11-18T11:27:02.589Z,20.00
2017-11-18T11:28:07.970Z,20.00
2017-11-18T11:29:14.171Z,20.00
2017-11-18T11:30:20.025Z,20.00
2017-11-18T11:31:25.290Z,20.00
2017-11-18T11:32:31.751Z,20.00
2017-11-18T11:33:37.042Z,20.10
2017-11-18T11:34:42.865Z,20.10
2017-11-18T11:35:48.720Z,20.00
2017-11-18T11:36:54.818Z,20.10
2017-11-18T11:38:01.280Z,20.20
2017-11-18T11:39:06.872Z,20.10
2017-11-18T11:40:12.610Z,20.10
2017-11-18T11:41:17.801Z,20.10
2017-11-18T11:42:23.562Z,20.10
2017-11-18T11:43:28.956Z,20.10
2017-11-18T11:44:34.460Z,20.10
2017-11-18T11:45:39.784Z,20.10
2017-11-18T11:46:45.191Z,20.10
2017-11-18T11:47:52.191Z,20.10
2017-11-18T11:48:57.485Z,20.10
2017-11-18T11:50:03.364Z,20.10
2017-11-18T11:51:09.370Z,20.10
2017-11-18T11:52:15.595Z,20.10
2017-11-18T11:53:21.171Z,20.10
2017-11-18T11:54:26.979Z,20.10
2017-11-18T11:55:32.214Z,20.10
2017-11-18T11:56:37.591Z,20.10
2017-11-18T11:57:42.829Z,20.10
2017-11-18T11:58:48.314Z,20.20
2017-11-18T11:59:53.840Z,20.10
2017-11-18T12:00:59.202Z,20.10
2017-11-18T12:02:05.060Z,20.10
2017-11-18T12:03:11.524Z,20.10
2017-11-18T12:04:17.305Z,20.20
2017-11-18T12:05:23.438Z,20.20
2017-11-18T12:06:29.255Z,20.00
2017-11-18T12:07:35.182Z,20.20
2017-11-18T12:08:40.346Z,20.10
2017-11-18T12:09:45.761Z,20.20
2017-11-18T12:10:51.325Z,20.20
2017-11-18T12:11:57.537Z,20.20
2017-11-18T12:13:02.791Z,20.10
2017-11-18T12:14:08.574Z,20.20
2017-11-18T12:15:13.757Z,20.20
2017-11-18T12:16:19.437Z,20.20
2017-11-18T12:17:25.337Z,20.20
2017-11-18T12:18:30.973Z,20.20
2017-11-18T12:19:36.565Z,20.10
2017-11-18T12:20:42.301Z,20.20
2017-11-18T12:21:48.141Z,20.10
2017-11-18T12:22:55.979Z,20.10
2017-11-18T12:24:01.834Z,20.20
2017-11-18T12:25:08.254Z,20.20
2017-11-18T12:26:14.099Z,20.20
2017-11-18T12:27:21.009Z,20.20
2017-11-18T12:28:26.662Z,20.20
2017-11-18T12:29:32.255Z,20.10
2017-11-18T12:30:37.919Z,20.20
2017-11-18T12:31:45.176Z,20.10
2017-11-18T12:32:50.819Z,20.20
2017-11-18T12:33:57.057Z,20.10
2017-11-18T12:35:02.747Z,20.10
2017-11-18T12:36:08.450Z,20.10
2017-11-18T12:37:13.788Z,20.10
2017-11-18T12:38:19.494Z,20.10
2017-11-18T12:39:24.965Z,20.10
2017-11-18T12:40:30.377Z,20.10
2017-11-18T12:41:35.901Z,20.10
2017-11-18T12:42:41.641Z,20.10
2017-11-18T12:43:47.344Z,20.10
2017-11-18T12:44:53.085Z,20.10
2017-11-18T12:45:59.985Z,20.10
2017-11-18T12:47:08.410Z,20.10
2017-11-18T12:48:16.663Z,20.10
2017-11-18T12:49:25.159Z,20.10
2017-11-18T12:50:32.798Z,20.10
2017-11-18T12:51:40.617Z,20.10
2017-11-18T12:52:52.519Z,20.10
2017-11-18T12:54:00.350Z,20.20
2017-11-18T12:55:05.784Z,20.20
2017-11-18T12:56:11.658Z,20.20
2017-11-18T12:57:17.920Z,20.20
2017-11-18T12:58:24.766Z,20.20
2017-11-18T12:59:30.831Z,20.20
2017-11-18T13:00:37.011Z,20.20
2017-11-18T13:01:42.400Z,20.20
2017-11-18T13:02:48.652Z,20.20
2017-11-18T13:03:53.828Z,20.20
2017-11-18T13:04:59.091Z,20.20
2017-11-18T13:06:07.256Z,20.20
2017-11-18T13:07:12.874Z,20.10
2017-11-18T13:08:18.568Z,20.20
2017-11-18T13:09:24.070Z,20.20
2017-11-18T13:10:29.324Z,20.20
2017-11-18T13:11:35.380Z,20.20
2017-11-18T13:12:40.565Z,20.20
2017-11-18T13:13:46.485Z,20.20
2017-11-18T13:14:52.192Z,20.20
2017-11-18T13:15:57.465Z,20.20
2017-11-18T13:17:03.168Z,20.20
2017-11-18T13:18:10.031Z,20.20
2017-11-18T13:19:15.677Z,20.20
2017-11-18T13:20:21.355Z,20.20
2017-11-18T13:21:27.227Z,20.20
2017-11-18T13:22:33.658Z,20.20
2017-11-18T13:23:38.868Z,20.30
2017-11-18T13:24:45.094Z,20.20
2017-11-18T13:25:51.915Z,20.20
2017-11-18T13:27:00.170Z,20.20
2017-11-18T13:28:06.580Z,20.30
2017-11-18T13:29:11.758Z,20.30
2017-11-18T13:30:17.396Z,20.30
2017-11-18T13:31:23.195Z,20.20
2017-11-18T13:32:29.747Z,20.10
2017-11-18T13:33:35.664Z,20.00
2017-11-18T13:34:53.213Z,20.00
2017-11-18T13:36:00.936Z,20.00
2017-11-18T13:37:11.568Z,20.00
2017-11-18T13:38:19.512Z,20.00
2017-11-18T13:39:26.299Z,20.10
2017-11-18T13:40:33.593Z,20.10
2017-11-18T13:41:39.816Z,20.20
2017-11-18T13:42:45.998Z,20.20
2017-11-18T13:43:51.724Z,20.20
2017-11-18T13:44:57.157Z,20.30
2017-11-18T13:46:02.967Z,20.30
2017-11-18T13:47:09.107Z,20.30
2017-11-18T13:48:15.584Z,20.40
2017-11-18T13:49:21.139Z,20.40
2017-11-18T13:50:28.120Z,20.40
2017-11-18T13:51:35.396Z,20.40
2017-11-18T13:52:41.289Z,20.50
2017-11-18T13:53:47.802Z,20.50
2017-11-18T13:54:53.009Z,20.60
2017-11-18T13:55:58.770Z,20.60
2017-11-18T13:57:05.281Z,20.70
2017-11-18T13:58:11.266Z,20.60
2017-11-18T13:59:16.851Z,20.60
2017-11-18T14:00:22.027Z,20.60
2017-11-18T14:01:29.897Z,20.60
2017-11-18T14:02:34.836Z,20.50